createdAt,value
2018-03-06T00:02:26.739Z,38.30
2018-03-06T00:04:54.211Z,37.43
2018-03-06T00:07:21.696Z,37.10
2018-03-06T00:09:49.161Z,37.83
2018-03-06T00:12:16.637Z,37.07
2018-03-06T00:14:44.106Z,38.23
2018-03-06T00:17:11.563Z,37.20
2018-03-06T00:19:39.030Z,38.07
2018-03-06T00:22:06.499Z,38.60
2018-03-06T00:24:33.976Z,36.90
2018-03-06T00:27:01.435Z,37.50
2018-03-06T00:29:28.911Z,37.47
2018-03-06T00:31:57.164Z,37.00
2018-03-06T00:34:24.638Z,37.27
2018-03-06T00:36:52.099Z,36.47
2018-03-06T00:39:19.567Z,38.00
2018-03-06T00:41:47.036Z,37.87
2018-03-06T00:44:14.515Z,38.13
2018-03-06T00:46:41.995Z,36.47
2018-03-06T00:49:09.472Z,37.43
2018-03-06T00:51:37.728Z,38.70
2018-03-06T00:54:05.215Z,38.20
2018-03-06T00:56:32.684Z,36.80
2018-03-06T00:59:00.155Z,36.80
2018-03-06T01:01:27.632Z,38.00
2018-03-06T01:03:55.103Z,37.27
2018-03-06T01:06:22.575Z,35.80
2018-03-06T01:08:50.044Z,38.30
2018-03-06T01:11:18.291Z,38.83
2018-03-06T01:13:45.754Z,38.80
2018-03-06T01:16:13.227Z,37.90
2018-03-06T01:18:40.710Z,38.03
2018-03-06T01:21:08.199Z,38.37
2018-03-06T01:23:35.683Z,39.43
2018-03-06T01:26:03.168Z,37.83
2018-03-06T01:28:31.403Z,38.67
2018-03-06T01:30:58.864Z,38.07
2018-03-06T01:33:26.343Z,38.83
2018-03-06T01:35:53.825Z,39.33
2018-03-06T01:38:21.305Z,39.07
2018-03-06T01:40:48.782Z,39.27
2018-03-06T01:43:16.264Z,38.63
2018-03-06T01:45:43.728Z,39.03
2018-03-06T01:48:11.211Z,38.60
2018-03-06T01:50:38.671Z,38.73
2018-03-06T01:53:06.142Z,38.00
2018-03-06T01:55:33.612Z,39.50
2018-03-06T01:58:01.091Z,39.23
2018-03-06T02:00:28.558Z,39.33
2018-03-06T02:02:56.036Z,38.90
2018-03-06T02:05:23.503Z,38.50
2018-03-06T02:07:50.969Z,38.70
2018-03-06T02:10:18.441Z,38.97
2018-03-06T02:12:45.907Z,38.83
2018-03-06T02:15:13.387Z,39.17
2018-03-06T02:17:40.852Z,37.07
2018-03-06T02:20:08.327Z,37.90
2018-03-06T02:22:35.787Z,40.17
2018-03-06T02:25:03.260Z,38.77
2018-03-06T02:27:30.727Z,38.90
2018-03-06T02:29:58.208Z,38.80
2018-03-06T02:32:25.685Z,38.83
2018-03-06T02:34:53.172Z,39.23
2018-03-06T02:37:20.631Z,37.57
2018-03-06T02:39:48.877Z,38.10
2018-03-06T02:42:16.335Z,38.03
2018-03-06T02:44:43.810Z,37.13
2018-03-06T02:47:11.282Z,38.60
2018-03-06T02:49:38.743Z,39.13
2018-03-06T02:52:06.223Z,40.87
2018-03-06T02:54:33.699Z,39.77
2018-03-06T02:57:01.192Z,39.17
2018-03-06T02:59:28.650Z,39.53
2018-03-06T03:01:56.122Z,38.70
2018-03-06T03:04:24.352Z,38.70
2018-03-06T03:06:51.836Z,40.33
2018-03-06T03:09:19.299Z,39.57
2018-03-06T03:11:46.793Z,39.57
2018-03-06T03:14:14.267Z,38.93
2018-03-06T03:16:41.781Z,39.47
2018-03-06T03:19:10.044Z,39.57
2018-03-06T03:21:37.523Z,40.00
2018-03-06T03:24:04.984Z,38.23
2018-03-06T03:26:32.459Z,38.80
2018-03-06T03:28:59.935Z,38.37
2018-03-06T03:31:27.411Z,40.77
2018-03-06T03:33:54.886Z,39.23
2018-03-06T03:36:22.359Z,40.30
2018-03-06T03:38:50.609Z,39.00
2018-03-06T03:41:18.076Z,39.50
2018-03-06T03:43:45.539Z,40.77
2018-03-06T03:46:13.016Z,38.70
2018-03-06T03:48:40.481Z,40.63
2018-03-06T03:51:08.019Z,40.90
2018-03-06T03:53:36.266Z,39.17
2018-03-06T03:56:03.742Z,39.87
2018-03-06T03:58:31.204Z,40.57
2018-03-06T04:00:58.683Z,39.30
2018-03-06T04:03:26.144Z,38.83
2018-03-06T04:05:53.641Z,38.87
2018-03-06T04:08:21.121Z,38.77
2018-03-06T04:10:48.594Z,39.60
2018-03-06T04:13:16.818Z,38.03
2018-03-06T04:15:44.308Z,38.67
2018-03-06T04:18:11.791Z,39.27
2018-03-06T04:20:39.259Z,41.17
2018-03-06T04:23:06.733Z,39.57
2018-03-06T04:25:34.202Z,40.27
2018-03-06T04:28:01.689Z,41.30
2018-03-06T04:30:29.153Z,41.73
2018-03-06T04:32:56.627Z,39.07
2018-03-06T04:35:24.856Z,39.43
2018-03-06T04:37:52.327Z,40.13
2018-03-06T04:40:20.559Z,39.97
2018-03-06T04:42:48.035Z,41.13
2018-03-06T04:45:15.500Z,39.47
2018-03-06T04:47:42.974Z,40.60
2018-03-06T04:50:10.438Z,40.90
2018-03-06T04:52:37.915Z,41.80
2018-03-06T04:55:05.381Z,39.20
2018-03-06T04:57:32.861Z,39.80
2018-03-06T05:00:00.343Z,41.23
2018-03-06T05:02:27.817Z,40.93
2018-03-06T05:04:55.283Z,42.87
2018-03-06T05:07:22.765Z,41.07
2018-03-06T05:09:50.243Z,42.30
2018-03-06T05:12:17.719Z,40.00
2018-03-06T05:14:45.194Z,39.43
2018-03-06T05:17:12.676Z,41.80
2018-03-06T05:19:40.147Z,40.67
2018-03-06T05:22:08.403Z,41.37
2018-03-06T05:24:35.887Z,41.83
2018-03-06T05:27:03.374Z,40.17
2018-03-06T05:29:30.847Z,40.37
2018-03-06T05:31:58.324Z,40.33
2018-03-06T05:34:25.796Z,40.60
2018-03-06T05:36:54.063Z,41.47
2018-03-06T05:39:21.535Z,41.33
2018-03-06T05:41:49.019Z,40.90
2018-03-06T05:44:16.500Z,41.93
2018-03-06T05:46:43.988Z,40.30
2018-03-06T05:49:11.458Z,42.20
2018-03-06T05:51:38.939Z,43.20
2018-03-06T05:54:06.412Z,40.90
2018-03-06T05:56:33.883Z,41.23
2018-03-06T05:59:01.365Z,39.77
2018-03-06T06:01:28.840Z,42.27
2018-03-06T06:03:56.324Z,42.03
2018-03-06T06:06:23.796Z,40.40
2018-03-06T06:08:51.270Z,42.57
2018-03-06T06:11:19.492Z,41.70
2018-03-06T06:13:47.745Z,41.00
2018-03-06T06:16:15.202Z,40.43
2018-03-06T06:18:42.681Z,40.73
2018-03-06T06:21:10.145Z,40.53
2018-03-06T06:23:37.624Z,41.20
2018-03-06T06:26:05.083Z,39.87
2018-03-06T06:28:32.563Z,41.90
2018-03-06T06:31:00.035Z,40.03
2018-03-06T06:33:27.519Z,40.63
2018-03-06T06:35:54.983Z,42.17
2018-03-06T06:38:23.222Z,44.13
2018-03-06T06:40:51.451Z,43.07
2018-03-06T06:43:18.932Z,40.90
2018-03-06T06:45:46.400Z,42.37
2018-03-06T06:48:13.874Z,41.07
2018-03-06T06:50:41.344Z,41.90
2018-03-06T06:53:08.860Z,42.63
2018-03-06T06:55:36.517Z,40.93
2018-03-06T06:58:03.979Z,41.80
2018-03-06T07:00:31.452Z,43.27
2018-03-06T07:02:58.936Z,42.00
2018-03-06T07:05:26.403Z,42.60
2018-03-06T07:07:53.872Z,40.73
2018-03-06T07:10:21.370Z,41.30
2018-03-06T07:12:48.826Z,41.53
2018-03-06T07:15:16.288Z,41.40
2018-03-06T07:17:43.935Z,41.33
2018-03-06T07:20:11.449Z,41.50
2018-03-06T07:22:38.911Z,43.00
2018-03-06T07:25:06.391Z,43.20
2018-03-06T07:27:34.618Z,42.23
2018-03-06T07:30:02.106Z,42.07
2018-03-06T07:32:30.342Z,42.00
2018-03-06T07:34:57.824Z,43.50
2018-03-06T07:37:25.279Z,43.23
2018-03-06T07:39:52.763Z,42.07
2018-03-06T07:42:20.240Z,43.73
2018-03-06T07:44:47.708Z,43.83
2018-03-06T07:47:15.175Z,42.53
2018-03-06T07:49:42.636Z,42.33
2018-03-06T07:52:10.098Z,42.63
2018-03-06T07:54:37.580Z,42.73
2018-03-06T07:57:05.077Z,45.17
2018-03-06T07:59:32.635Z,45.67
2018-03-06T08:02:00.108Z,43.60
2018-03-06T08:04:27.583Z,45.00
2018-03-06T08:06:55.049Z,44.23
2018-03-06T08:09:22.508Z,42.70
2018-03-06T08:11:49.970Z,44.57
2018-03-06T08:14:17.441Z,44.53
2018-03-06T08:16:45.548Z,44.67
2018-03-06T08:19:13.040Z,45.53
2018-03-06T08:21:40.505Z,44.40
2018-03-06T08:24:07.963Z,45.53
2018-03-06T08:26:35.447Z,45.00
2018-03-06T08:29:03.716Z,44.20
2018-03-06T08:31:31.180Z,45.70
2018-03-06T08:33:59.410Z,46.30
2018-03-06T08:36:26.888Z,47.10
2018-03-06T08:38:54.354Z,46.40
2018-03-06T08:41:21.863Z,46.50
2018-03-06T08:43:49.326Z,45.50
2018-03-06T08:46:16.810Z,45.07
2018-03-06T08:48:44.271Z,46.23
2018-03-06T08:51:11.745Z,47.17
2018-03-06T08:53:39.215Z,46.40
2018-03-06T08:56:07.435Z,46.40
2018-03-06T08:58:34.911Z,47.30
2018-03-06T09:01:02.374Z,46.80
2018-03-06T09:03:29.867Z,47.27
2018-03-06T09:05:57.306Z,45.93
2018-03-06T09:08:24.795Z,46.63
2018-03-06T09:10:52.256Z,44.53
2018-03-06T09:13:19.735Z,45.53
2018-03-06T09:15:47.195Z,42.27
2018-03-06T09:18:16.435Z,43.43
2018-03-06T09:20:43.899Z,43.03
2018-03-06T09:23:11.363Z,40.90
2018-03-06T09:25:38.829Z,44.23
2018-03-06T09:28:07.068Z,44.87
2018-03-06T09:30:34.537Z,45.03
2018-03-06T09:33:02.015Z,40.53
2018-03-06T09:35:29.480Z,40.23
2018-03-06T09:37:56.931Z,41.63
2018-03-06T09:40:24.402Z,41.27
2018-03-06T09:42:51.872Z,41.33
2018-03-06T09:45:19.336Z,41.90
2018-03-06T09:47:46.794Z,41.80
2018-03-06T09:50:14.261Z,40.53
2018-03-06T09:52:41.716Z,42.53
2018-03-06T09:55:09.195Z,41.37
2018-03-06T09:57:36.708Z,41.30
2018-03-06T10:00:04.152Z,40.57
2018-03-06T10:02:31.608Z,41.03
2018-03-06T10:04:59.079Z,40.97
2018-03-06T10:07:26.535Z,41.03
2018-03-06T10:09:54.011Z,42.07
2018-03-06T10:12:21.479Z,39.20
2018-03-06T10:14:48.955Z,40.67
2018-03-06T10:17:16.409Z,42.47
2018-03-06T10:19:43.875Z,42.30
2018-03-06T10:22:11.339Z,41.80
2018-03-06T10:24:38.928Z,41.30
2018-03-06T10:27:06.380Z,40.20
2018-03-06T10:29:33.842Z,42.40
2018-03-06T10:32:01.312Z,41.37
2018-03-06T10:34:28.771Z,41.27
2018-03-06T10:36:56.239Z,41.20
2018-03-06T10:39:23.699Z,41.37
2018-03-06T10:41:51.196Z,41.67
2018-03-06T10:44:18.658Z,40.07
2018-03-06T10:46:46.133Z,39.60
2018-03-06T10:49:13.598Z,41.03
2018-03-06T10:51:41.059Z,38.53
2018-03-06T10:54:08.519Z,39.73
2018-03-06T10:56:35.992Z,40.60
2018-03-06T10:59:04.215Z,39.80
2018-03-06T11:01:33.279Z,41.47
2018-03-06T11:04:00.740Z,40.30
2018-03-06T11:06:28.207Z,40.97
2018-03-06T11:08:55.663Z,40.33
2018-03-06T11:11:23.194Z,42.00
2018-03-06T11:13:50.607Z,40.87
2018-03-06T11:16:18.062Z,39.80
2018-03-06T11:18:45.739Z,41.63
2018-03-06T11:21:13.205Z,39.80
2018-03-06T11:23:40.667Z,39.07
2018-03-06T11:26:08.416Z,42.00
2018-03-06T11:28:35.942Z,40.70
2018-03-06T11:31:03.406Z,40.53
2018-03-06T11:33:30.863Z,40.13
2018-03-06T11:35:58.329Z,39.63
2018-03-06T11:38:25.798Z,39.90
2018-03-06T11:40:53.267Z,40.77
2018-03-06T11:43:20.727Z,41.87
2018-03-06T11:45:48.190Z,42.17
2018-03-06T11:48:15.672Z,39.93
2018-03-06T11:50:43.135Z,40.67
2018-03-06T11:53:10.595Z,41.17
2018-03-06T11:55:38.055Z,40.77
2018-03-06T11:58:05.519Z,43.33
2018-03-06T12:00:32.976Z,40.97
2018-03-06T12:03:00.455Z,42.50
2018-03-06T12:05:27.903Z,41.63
2018-03-06T12:07:55.369Z,41.90
2018-03-06T12:10:22.833Z,41.30
2018-03-06T12:12:50.313Z,41.17
2018-03-06T12:15:17.762Z,40.60
2018-03-06T12:17:45.240Z,42.27
2018-03-06T12:20:12.707Z,39.30
2018-03-06T12:22:40.224Z,40.77
2018-03-06T12:25:07.674Z,42.93
2018-03-06T12:27:35.142Z,41.80
2018-03-06T12:30:02.602Z,41.13
2018-03-06T12:32:30.080Z,40.83
2018-03-06T12:34:57.535Z,40.20
2018-03-06T12:37:25.008Z,40.27
2018-03-06T12:39:52.474Z,42.03
2018-03-06T12:42:19.939Z,42.97
2018-03-06T12:44:47.436Z,41.33
2018-03-06T12:47:14.894Z,42.37
2018-03-06T12:49:42.358Z,41.27
2018-03-06T12:52:09.839Z,42.60
2018-03-06T12:54:37.298Z,41.83
2018-03-06T12:57:04.763Z,41.97
2018-03-06T12:59:32.219Z,40.47
2018-03-06T13:01:59.691Z,40.80
2018-03-06T13:04:27.191Z,40.43
2018-03-06T13:06:54.703Z,41.30
2018-03-06T13:09:22.172Z,41.57
2018-03-06T13:11:50.402Z,40.77
2018-03-06T13:14:17.854Z,40.87
2018-03-06T13:16:45.324Z,41.20
2018-03-06T13:19:12.783Z,40.83
2018-03-06T13:21:40.265Z,42.00
2018-03-06T13:24:07.731Z,41.97
2018-03-06T13:26:35.196Z,39.13
2018-03-06T13:29:02.734Z,40.67
2018-03-06T13:31:30.202Z,39.90
2018-03-06T13:33:58.479Z,40.23
2018-03-06T13:36:25.899Z,41.73
2018-03-06T13:38:53.381Z,40.10
2018-03-06T13:41:20.885Z,41.10
2018-03-06T13:43:48.355Z,39.77
2018-03-06T13:46:15.802Z,41.60
2018-03-06T13:48:43.279Z,40.23
2018-03-06T13:51:10.744Z,41.13
2018-03-06T13:53:38.203Z,41.77
2018-03-06T13:56:05.669Z,41.30
2018-03-06T13:58:33.135Z,39.70
2018-03-06T14:01:00.594Z,39.80
2018-03-06T14:03:28.061Z,40.40
2018-03-06T14:05:56.287Z,41.70
2018-03-06T14:08:23.759Z,42.53
2018-03-06T14:10:51.224Z,40.57
2018-03-06T14:13:18.701Z,41.50
2018-03-06T14:15:46.161Z,39.73
2018-03-06T14:18:13.634Z,40.50
2018-03-06T14:20:41.161Z,40.50
2018-03-06T14:23:08.710Z,39.43
2018-03-06T14:25:36.131Z,40.93
2018-03-06T14:28:03.622Z,40.13
2018-03-06T14:30:31.072Z,41.23
2018-03-06T14:32:58.543Z,39.70
2018-03-06T14:35:26.015Z,40.77
2018-03-06T14:37:58.511Z,41.17
2018-03-06T14:40:25.986Z,39.70
2018-03-06T14:42:53.494Z,41.00
2018-03-06T14:45:20.975Z,41.10
2018-03-06T14:47:49.212Z,41.13
2018-03-06T14:50:16.696Z,41.23
2018-03-06T14:52:44.143Z,41.07
2018-03-06T14:55:11.612Z,40.33
2018-03-06T14:57:39.077Z,40.30
2018-03-06T15:00:06.676Z,41.33
2018-03-06T15:02:34.146Z,41.03
2018-03-06T15:05:01.612Z,41.37
2018-03-06T15:07:29.071Z,40.50
2018-03-06T15:09:56.540Z,43.00
2018-03-06T15:12:24.005Z,41.37
2018-03-06T15:14:51.491Z,41.30
2018-03-06T15:17:18.959Z,41.80
2018-03-06T15:19:46.435Z,41.40
2018-03-06T15:22:13.945Z,42.13
2018-03-06T15:24:41.411Z,42.80
2018-03-06T15:27:08.871Z,41.63
2018-03-06T15:29:36.341Z,42.73
2018-03-06T15:32:03.810Z,41.20
2018-03-06T15:34:31.300Z,39.90
2018-03-06T15:36:58.763Z,41.17
2018-03-06T15:39:26.275Z,40.70
2018-03-06T15:41:53.743Z,41.97
2018-03-06T15:44:21.260Z,40.87
2018-03-06T15:46:48.730Z,41.23
2018-03-06T15:49:16.191Z,39.93
2018-03-06T15:51:43.656Z,39.83
2018-03-06T15:54:11.323Z,40.23
2018-03-06T15:56:38.787Z,41.57
2018-03-06T15:59:06.258Z,41.23
2018-03-06T16:01:33.763Z,41.90
2018-03-06T16:04:01.993Z,42.80
2018-03-06T16:06:29.466Z,41.40
2018-03-06T16:08:56.917Z,41.30
2018-03-06T16:11:24.375Z,41.33
2018-03-06T16:13:51.904Z,39.30
2018-03-06T16:16:19.378Z,40.87
2018-03-06T16:18:46.847Z,41.63
2018-03-06T16:21:14.583Z,40.87
2018-03-06T16:23:42.057Z,41.00
2018-03-06T16:26:09.518Z,41.07
2018-03-06T16:28:36.997Z,39.47
2018-03-06T16:31:04.504Z,40.00
2018-03-06T16:33:31.972Z,39.13
2018-03-06T16:35:59.427Z,40.63
2018-03-06T16:38:26.911Z,41.93
2018-03-06T16:40:54.366Z,41.67
2018-03-06T16:43:22.607Z,39.90
2018-03-06T16:45:50.060Z,39.33
2018-03-06T16:48:17.550Z,41.87
2018-03-06T16:50:45.011Z,40.50
2018-03-06T16:53:12.479Z,40.93
2018-03-06T16:55:39.941Z,39.60
2018-03-06T16:58:07.422Z,40.87
2018-03-06T17:00:35.650Z,40.40
2018-03-06T17:03:03.106Z,39.90
2018-03-06T17:05:30.579Z,40.00
2018-03-06T17:07:58.039Z,42.47
2018-03-06T17:10:25.504Z,40.93
2018-03-06T17:12:52.971Z,41.13
2018-03-06T17:15:20.439Z,40.93
2018-03-06T17:17:48.677Z,40.20
2018-03-06T17:20:16.915Z,41.17
2018-03-06T17:22:44.383Z,41.77
2018-03-06T17:25:11.847Z,40.57
2018-03-06T17:27:39.306Z,40.53
2018-03-06T17:30:07.636Z,39.63
2018-03-06T17:32:35.862Z,40.13
2018-03-06T17:35:03.344Z,41.70
2018-03-06T17:37:30.827Z,41.97
2018-03-06T17:39:58.311Z,40.30
2018-03-06T17:42:25.769Z,41.93
2018-03-06T17:44:53.275Z,41.57
2018-03-06T17:47:20.747Z,42.30
2018-03-06T17:49:49.005Z,42.70
2018-03-06T17:52:16.468Z,42.10
2018-03-06T17:54:43.944Z,42.13
2018-03-06T17:57:11.404Z,42.07
2018-03-06T17:59:38.890Z,40.20
2018-03-06T18:02:06.395Z,42.80
2018-03-06T18:04:33.838Z,43.23
2018-03-06T18:07:01.317Z,44.17
2018-03-06T18:09:28.775Z,42.40
2018-03-06T18:11:56.260Z,41.53
2018-03-06T18:14:23.724Z,42.87
2018-03-06T18:16:51.203Z,42.53
2018-03-06T18:19:18.667Z,41.23
2018-03-06T18:21:46.134Z,43.03
2018-03-06T18:24:13.622Z,41.33
2018-03-06T18:26:41.095Z,40.90
2018-03-06T18:29:08.605Z,41.73
2018-03-06T18:31:36.052Z,40.83
2018-03-06T18:34:03.597Z,42.10
2018-03-06T18:36:31.095Z,43.33
2018-03-06T18:38:58.567Z,42.97
2018-03-06T18:41:26.807Z,45.57
2018-03-06T18:43:54.275Z,45.30
2018-03-06T18:46:21.727Z,44.37
2018-03-06T18:48:49.211Z,46.50
2018-03-06T18:51:16.667Z,45.83
2018-03-06T18:53:44.239Z,45.50
2018-03-06T18:56:12.476Z,45.13
2018-03-06T18:58:40.708Z,44.13
2018-03-06T19:01:30.867Z,43.80
2018-03-06T19:04:10.092Z,43.77
2018-03-06T19:07:11.920Z,44.77
2018-03-06T19:09:39.401Z,45.27
2018-03-06T19:12:06.880Z,44.63
2018-03-06T19:14:35.129Z,46.53
2018-03-06T19:17:02.609Z,43.10
2018-03-06T19:19:30.087Z,44.03
2018-03-06T19:21:58.557Z,44.80
2018-03-06T19:24:26.076Z,46.00
2018-03-06T19:26:53.598Z,46.40
2018-03-06T19:29:21.084Z,46.37
2018-03-06T19:31:48.566Z,45.43
2018-03-06T19:34:16.038Z,44.47
2018-03-06T19:36:43.514Z,45.73
2018-03-06T19:39:11.008Z,47.37
2018-03-06T19:41:38.480Z,43.97
2018-03-06T19:44:05.959Z,44.60
2018-03-06T19:46:33.434Z,44.03
2018-03-06T19:49:01.659Z,46.03
2018-03-06T19:51:29.136Z,47.07
2018-03-06T19:53:56.610Z,46.40
2018-03-06T19:56:24.867Z,46.90
2018-03-06T19:58:52.339Z,46.20
2018-03-06T20:01:19.841Z,44.47
2018-03-06T20:03:47.325Z,46.57
2018-03-06T20:06:14.796Z,46.17
2018-03-06T20:08:42.286Z,46.53
2018-03-06T20:11:09.805Z,47.10
2018-03-06T20:13:37.277Z,47.00
2018-03-06T20:16:04.778Z,46.83
2018-03-06T20:18:32.261Z,45.23
2018-03-06T20:20:59.736Z,45.10
2018-03-06T20:23:27.196Z,47.97
2018-03-06T20:25:59.619Z,46.20
2018-03-06T20:28:27.076Z,47.03
2018-03-06T20:31:00.255Z,47.47
2018-03-06T20:33:27.706Z,48.20
2018-03-06T20:35:55.166Z,46.50
2018-03-06T20:38:28.361Z,49.70
2018-03-06T20:40:56.584Z,49.93
2018-03-06T20:43:24.060Z,48.93
2018-03-06T20:45:57.206Z,47.50
2018-03-06T20:48:24.675Z,46.67
2018-03-06T20:50:52.132Z,47.50
2018-03-06T20:53:25.183Z,50.47
2018-03-06T20:55:52.667Z,48.43
2018-03-06T20:58:20.128Z,47.97
2018-03-06T21:00:47.590Z,47.50
2018-03-06T21:03:15.062Z,50.10
2018-03-06T21:05:42.522Z,50.27
2018-03-06T21:08:10.004Z,51.37
2018-03-06T21:10:37.461Z,46.47
2018-03-06T21:13:04.976Z,48.17
2018-03-06T21:15:32.435Z,46.17
2018-03-06T21:17:59.908Z,46.53
2018-03-06T21:20:27.374Z,48.23
2018-03-06T21:22:54.849Z,47.43
2018-03-06T21:25:22.298Z,46.07
2018-03-06T21:27:49.783Z,47.17
2018-03-06T21:30:18.007Z,47.07
2018-03-06T21:35:19.991Z,47.23
2018-03-06T21:37:47.477Z,45.33
2018-03-06T21:40:14.937Z,47.50
2018-03-06T21:42:42.398Z,45.90
2018-03-06T21:45:09.875Z,49.20
2018-03-06T21:47:37.395Z,51.03
2018-03-06T21:50:04.886Z,53.70
2018-03-06T21:52:33.110Z,49.20
2018-03-06T21:55:00.594Z,54.63
2018-03-06T21:57:28.051Z,49.30
2018-03-06T21:59:55.523Z,47.60
2018-03-06T22:02:23.912Z,49.37
2018-03-06T22:04:51.378Z,47.77
2018-03-06T22:07:18.844Z,46.77
2018-03-06T22:09:46.316Z,49.37
2018-03-06T22:12:13.775Z,48.27
2018-03-06T22:14:41.248Z,47.87
2018-03-06T22:17:08.708Z,48.50
2018-03-06T22:19:36.179Z,51.43
2018-03-06T22:22:03.655Z,51.27
2018-03-06T22:24:31.123Z,50.20
2018-03-06T22:26:59.385Z,48.20
2018-03-06T22:29:26.848Z,47.70
2018-03-06T22:31:54.313Z,47.83
2018-03-06T22:34:21.779Z,47.30
2018-03-06T22:36:49.251Z,48.63
2018-03-06T22:39:16.718Z,46.83
2018-03-06T22:41:44.180Z,48.90
2018-03-06T22:44:11.663Z,47.67
2018-03-06T22:46:39.137Z,46.77
2018-03-06T22:49:06.607Z,47.43
2018-03-06T22:51:34.075Z,47.67
2018-03-06T22:54:01.552Z,45.53
2018-03-06T22:56:29.015Z,48.10
2018-03-06T22:58:56.479Z,47.20
2018-03-06T23:01:23.975Z,47.33
2018-03-06T23:03:51.431Z,45.37
2018-03-06T23:06:18.920Z,46.27
2018-03-06T23:08:46.407Z,46.00
2018-03-06T23:11:13.856Z,46.23
2018-03-06T23:13:41.319Z,45.97
2018-03-06T23:16:08.788Z,46.37
2018-03-06T23:18:36.264Z,46.70
2018-03-06T23:21:03.723Z,46.27
2018-03-06T23:23:31.182Z,45.50
2018-03-06T23:25:58.649Z,45.57
2018-03-06T23:28:26.150Z,45.63
2018-03-06T23:30:53.613Z,47.07
2018-03-06T23:33:21.087Z,47.23
2018-03-06T23:35:48.573Z,46.07
2018-03-06T23:38:16.062Z,46.67
2018-03-06T23:40:44.297Z,45.83
2018-03-06T23:43:11.768Z,45.63
2018-03-06T23:45:39.266Z,44.60
2018-03-06T23:48:06.748Z,45.50
2018-03-06T23:50:34.204Z,44.77
2018-03-06T23:53:01.705Z,45.67
2018-03-06T23:55:29.213Z,44.83
2018-03-06T23:57:56.675Z,46.00
